Time;durP1;ratioP1;P1;durP2;ratioP2;P2;SDS_P1;SDS_P2;PMS_P1;PMS_P2;Temp;Humidity;BMP_temperature;BMP_pressure;BME280_temperature;BME280_humidity;BME280_pressure;Samples;Min_cycle;Max_cycle;Signal;HPM_P1;HPM_P2
2023/07/23 00:01:14;;;;;;;3.37;2.33;;;17.40;99.90;;;;;;5005108;28;20551;-87
2023/07/23 00:03:40;;;;;;;4.03;2.00;;;17.40;99.90;;;;;;4993495;28;20655;-84
2023/07/23 00:06:05;;;;;;;4.77;2.50;;;17.40;99.90;;;;;;4996761;28;20182;-84
2023/07/23 00:08:31;;;;;;;4.47;2.70;;;17.30;99.90;;;;;;4998968;28;20209;-85
2023/07/23 00:10:57;;;;;;;6.20;3.33;;;17.30;99.90;;;;;;4997442;28;20229;-84
2023/07/23 00:13:23;;;;;;;10.03;2.80;;;17.40;99.90;;;;;;4989138;28;20221;-85
2023/07/23 00:15:48;;;;;;;3.73;2.47;;;17.20;99.90;;;;;;4995825;28;20524;-86
2023/07/23 00:18:14;;;;;;;4.90;2.90;;;17.10;99.90;;;;;;4996312;28;20225;-81
2023/07/23 00:20:39;;;;;;;3.47;2.57;;;16.70;99.90;;;;;;4997415;28;20243;-82
2023/07/23 00:23:05;;;;;;;4.47;3.00;;;17.00;99.90;;;;;;4997103;28;20191;-83
2023/07/23 00:25:30;;;;;;;4.13;2.80;;;17.10;99.90;;;;;;5000652;28;20182;-81
2023/07/23 00:27:56;;;;;;;3.47;3.10;;;17.10;99.90;;;;;;4995512;28;20271;-84
2023/07/23 00:30:21;;;;;;;4.73;2.73;;;17.10;99.90;;;;;;4999694;28;20191;-83
2023/07/23 00:32:47;;;;;;;8.33;3.53;;;17.10;99.90;;;;;;4996814;28;20190;-81
2023/07/23 00:35:13;;;;;;;5.27;3.37;;;17.20;99.90;;;;;;4993355;28;20195;-84
2023/07/23 00:37:38;;;;;;;3.53;2.70;;;17.20;99.90;;;;;;4997797;28;20468;-85
2023/07/23 00:40:04;;;;;;;4.27;3.17;;;17.10;99.90;;;;;;4989480;28;20196;-86
2023/07/23 00:42:30;;;;;;;4.67;3.33;;;17.00;99.90;;;;;;4992718;28;20194;-82
2023/07/23 00:44:55;;;;;;;3.77;2.67;;;17.00;99.90;;;;;;4993279;28;20441;-83
2023/07/23 00:47:21;;;;;;;3.83;2.40;;;17.10;99.90;;;;;;4996492;28;20560;-83
2023/07/23 00:49:48;;;;;;;3.90;2.87;;;17.00;99.90;;;;;;4995664;28;20201;-84
2023/07/23 00:52:14;;;;;;;3.63;2.43;;;17.20;99.90;;;;;;4996684;28;20429;-82
2023/07/23 00:54:40;;;;;;;4.27;3.30;;;17.10;99.90;;;;;;5013512;28;20792;-84
2023/07/23 00:57:07;;;;;;;4.80;2.47;;;17.10;99.90;;;;;;4998475;28;20476;-82
2023/07/23 00:59:33;;;;;;;3.00;2.60;;;17.30;99.90;;;;;;5001783;28;20429;-82
2023/07/23 01:01:59;;;;;;;4.97;3.40;;;17.30;99.90;;;;;;4991308;28;20456;-81
2023/07/23 01:04:26;;;;;;;3.87;3.07;;;17.30;99.90;;;;;;4991657;28;20441;-82
2023/07/23 01:06:53;;;;;;;4.70;2.80;;;17.20;99.90;;;;;;4997313;28;20425;-81
2023/07/23 01:09:21;;;;;;;3.93;2.63;;;17.30;99.90;;;;;;5010713;28;21176;-82
2023/07/23 01:11:48;;;;;;;4.23;2.73;;;17.10;99.90;;;;;;5005259;28;20967;-82
2023/07/23 01:14:14;;;;;;;3.47;2.90;;;16.90;99.90;;;;;;4993295;28;20441;-81
2023/07/23 01:16:40;;;;;;;8.20;2.57;;;16.90;99.90;;;;;;4997194;28;20473;-85
2023/07/23 01:19:07;;;;;;;4.40;2.53;;;16.90;99.90;;;;;;4990155;28;20206;-82
2023/07/23 01:21:32;;;;;;;3.53;2.40;;;17.10;99.90;;;;;;5007207;28;20949;-84
2023/07/23 01:23:58;;;;;;;4.50;3.10;;;17.20;99.90;;;;;;4990411;28;20452;-85
2023/07/23 01:26:23;;;;;;;4.40;3.00;;;17.40;99.90;;;;;;4986733;28;20186;-82
2023/07/23 01:28:49;;;;;;;4.17;2.73;;;17.40;99.90;;;;;;4982139;28;20217;-86
2023/07/23 01:31:14;;;;;;;6.93;2.90;;;17.60;99.90;;;;;;5008686;28;20200;-82
2023/07/23 01:33:41;;;;;;;4.33;3.13;;;17.80;99.90;;;;;;4993092;28;20182;-87
2023/07/23 01:36:06;;;;;;;12.83;2.77;;;17.80;99.90;;;;;;5015744;28;20189;-82
2023/07/23 01:38:32;;;;;;;5.17;3.10;;;17.90;99.90;;;;;;5008821;28;21044;-85
2023/07/23 01:40:58;;;;;;;4.60;2.50;;;17.90;99.90;;;;;;4995775;28;20721;-81
2023/07/23 01:43:24;;;;;;;5.53;2.80;;;17.90;99.90;;;;;;4988701;28;20196;-84
2023/07/23 01:45:50;;;;;;;3.63;2.73;;;17.80;99.90;;;;;;4986416;28;20209;-86
2023/07/23 01:48:16;;;;;;;3.10;2.20;;;17.90;99.90;;;;;;4999233;28;20501;-80
2023/07/23 01:50:42;;;;;;;3.93;2.60;;;17.70;99.90;;;;;;4995930;28;20292;-80
2023/07/23 01:53:08;;;;;;;3.47;3.03;;;17.60;99.90;;;;;;5001417;28;21055;-79
2023/07/23 01:55:34;;;;;;;4.10;2.87;;;17.40;99.90;;;;;;5015578;28;20198;-82
2023/07/23 01:57:59;;;;;;;5.43;2.10;;;17.40;99.90;;;;;;5005774;28;20214;-85
2023/07/23 02:00:25;;;;;;;5.93;3.13;;;17.40;99.90;;;;;;5006032;28;20528;-85
2023/07/23 02:02:51;;;;;;;3.17;2.33;;;17.20;99.90;;;;;;5007322;28;20182;-86
2023/07/23 02:05:21;;;;;;;3.53;2.47;;;17.10;99.90;;;;;;4996643;28;20191;-83
2023/07/23 02:07:46;;;;;;;4.10;2.60;;;16.90;99.90;;;;;;5005112;28;20210;-84
2023/07/23 02:10:12;;;;;;;3.40;2.53;;;16.70;99.90;;;;;;5002361;28;20550;-82
2023/07/23 02:12:38;;;;;;;5.10;2.40;;;16.70;99.90;;;;;;5015820;28;20201;-84
2023/07/23 02:15:04;;;;;;;3.20;2.50;;;16.60;99.90;;;;;;4999064;28;21347;-85
2023/07/23 02:17:30;;;;;;;4.00;2.63;;;16.50;99.90;;;;;;5001217;28;21683;-81
2023/07/23 02:19:55;;;;;;;4.00;2.70;;;16.60;99.90;;;;;;4995681;28;20441;-82
2023/07/23 02:22:21;;;;;;;5.10;2.37;;;16.60;99.90;;;;;;4996995;28;20190;-85
2023/07/23 02:24:47;;;;;;;4.17;2.70;;;16.60;99.90;;;;;;4995392;28;20635;-82
2023/07/23 02:27:13;;;;;;;3.87;2.70;;;16.60;99.90;;;;;;4997689;28;20182;-79
2023/07/23 02:29:39;;;;;;;4.93;2.93;;;16.50;99.90;;;;;;5001294;28;20717;-86
2023/07/23 02:32:06;;;;;;;3.90;2.83;;;16.50;99.90;;;;;;5009544;28;21294;-81
2023/07/23 02:34:32;;;;;;;3.83;2.70;;;16.60;99.90;;;;;;4994186;28;20537;-85
2023/07/23 02:36:57;;;;;;;5.00;2.73;;;16.50;99.90;;;;;;5009373;28;20483;-80
2023/07/23 02:39:23;;;;;;;4.50;2.80;;;16.50;99.90;;;;;;5003352;28;20469;-81
2023/07/23 02:41:49;;;;;;;5.13;3.10;;;16.50;99.90;;;;;;5004119;28;20210;-82
2023/07/23 02:44:14;;;;;;;3.77;2.87;;;16.60;99.90;;;;;;4997123;28;20309;-80
2023/07/23 02:46:40;;;;;;;8.50;3.70;;;16.60;99.90;;;;;;4998673;28;20669;-84
2023/07/23 02:49:05;;;;;;;4.23;2.43;;;16.80;99.90;;;;;;4996890;28;20214;-85
2023/07/23 02:51:31;;;;;;;5.20;2.93;;;17.20;99.90;;;;;;5002823;28;20183;-81
2023/07/23 02:53:57;;;;;;;3.90;2.90;;;16.90;99.90;;;;;;5006314;28;20190;-87
2023/07/23 02:56:22;;;;;;;3.70;2.20;;;16.80;99.90;;;;;;4999647;28;20519;-85
2023/07/23 02:58:48;;;;;;;5.43;3.10;;;16.70;99.90;;;;;;5021783;28;20449;-84
2023/07/23 03:01:14;;;;;;;5.40;2.67;;;16.70;99.90;;;;;;5013844;28;20198;-82
2023/07/23 03:03:39;;;;;;;5.60;3.20;;;16.60;99.90;;;;;;5004904;28;20182;-80
2023/07/23 03:06:08;;;;;;;5.50;2.60;;;16.60;99.90;;;;;;4997237;28;20300;-81
2023/07/23 03:08:34;;;;;;;3.80;2.70;;;16.60;99.90;;;;;;5000769;28;20206;-82
2023/07/23 03:11:00;;;;;;;3.83;2.77;;;16.60;99.90;;;;;;5015315;28;20445;-84
2023/07/23 03:13:26;;;;;;;3.93;2.47;;;16.50;99.90;;;;;;5003861;28;20448;-86
2023/07/23 03:15:51;;;;;;;3.20;2.30;;;16.50;99.90;;;;;;4989607;28;20449;-83
2023/07/23 03:18:17;;;;;;;4.60;2.90;;;16.60;99.90;;;;;;4995063;28;21061;-85
2023/07/23 03:20:42;;;;;;;3.10;2.50;;;16.70;99.90;;;;;;4996454;28;20202;-85
2023/07/23 03:23:08;;;;;;;3.93;2.60;;;16.60;99.90;;;;;;4996512;28;20183;-84
2023/07/23 03:25:34;;;;;;;4.50;2.50;;;16.70;99.90;;;;;;4995613;28;20274;-84
2023/07/23 03:27:59;;;;;;;3.00;2.03;;;16.80;99.90;;;;;;5010458;28;20214;-83
2023/07/23 03:30:28;;;;;;;3.50;2.63;;;16.80;99.90;;;;;;4996059;28;20194;-81
2023/07/23 03:32:54;;;;;;;3.83;2.87;;;16.70;99.90;;;;;;5002402;28;20197;-82
2023/07/23 03:35:21;;;;;;;4.90;2.80;;;16.70;99.90;;;;;;4994538;28;21129;-83
2023/07/23 03:37:46;;;;;;;3.60;2.50;;;16.70;99.90;;;;;;4998762;28;20472;-83
2023/07/23 03:40:12;;;;;;;4.27;2.40;;;16.70;99.90;;;;;;4994670;28;20493;-80
2023/07/23 03:42:37;;;;;;;5.60;2.77;;;16.60;99.90;;;;;;4993601;28;20190;-83
2023/07/23 03:45:04;;;;;;;5.50;2.87;;;16.60;99.90;;;;;;4994332;28;20179;-86
2023/07/23 03:47:29;;;;;;;5.03;3.03;;;16.60;99.90;;;;;;5000812;28;20582;-83
2023/07/23 03:49:55;;;;;;;5.80;2.57;;;16.60;99.90;;;;;;4998527;28;20449;-83
2023/07/23 03:52:21;;;;;;;4.77;2.53;;;16.60;99.90;;;;;;4999737;28;20186;-83
2023/07/23 03:54:47;;;;;;;3.47;2.50;;;16.60;99.90;;;;;;4999993;28;20213;-78
2023/07/23 03:57:13;;;;;;;5.50;2.53;;;;;;;;;;5013308;28;20456;-82
2023/07/23 03:59:44;;;;;;;4.80;3.07;;;16.90;99.90;;;;;;5010696;28;20205;-83
2023/07/23 04:02:10;;;;;;;3.40;2.63;;;16.90;99.90;;;;;;5017513;28;20460;-81
2023/07/23 04:04:37;;;;;;;4.10;2.60;;;17.00;99.90;;;;;;5008838;28;20438;-83
2023/07/23 04:07:03;;;;;;;4.60;2.43;;;17.00;99.90;;;;;;4998543;28;20490;-82
2023/07/23 04:09:29;;;;;;;3.07;2.23;;;16.90;99.90;;;;;;5002941;28;20444;-84
2023/07/23 04:11:55;;;;;;;5.40;2.50;;;16.90;99.90;;;;;;5012481;28;20449;-82
2023/07/23 04:14:20;;;;;;;5.57;2.60;;;16.80;99.90;;;;;;4995057;28;20666;-85
2023/07/23 04:16:46;;;;;;;8.23;3.17;;;17.00;99.90;;;;;;4997402;28;20469;-83
2023/07/23 04:19:12;;;;;;;4.83;2.30;;;17.10;99.90;;;;;;4987732;28;20238;-86
2023/07/23 04:21:38;;;;;;;3.23;2.77;;;17.30;99.90;;;;;;4993989;28;20485;-81
2023/07/23 04:24:03;;;;;;;4.50;2.87;;;17.40;99.90;;;;;;5020986;28;20185;-80
2023/07/23 04:26:30;;;;;;;3.07;2.40;;;17.60;99.90;;;;;;5023653;28;20209;-84
2023/07/23 04:28:56;;;;;;;5.37;3.33;;;17.90;99.90;;;;;;5016490;28;20707;-80
2023/07/23 04:31:22;;;;;;;3.23;2.90;;;18.00;99.90;;;;;;5011081;28;20900;-84
2023/07/23 04:33:49;;;;;;;3.30;2.50;;;18.20;99.90;;;;;;4999797;28;20520;-84
2023/07/23 04:36:15;;;;;;;3.00;2.60;;;18.70;99.90;;;;;;4988849;28;20301;-86
2023/07/23 04:38:42;;;;;;;3.67;2.70;;;19.60;99.90;;;;;;4997152;28;20841;-85
2023/07/23 04:41:08;;;;;;;3.77;2.60;;;20.10;99.90;;;;;;4993178;28;20440;-84
2023/07/23 04:43:38;;;;;;;7.10;3.00;;;20.60;99.90;;;;;;4994342;28;20465;-81
2023/07/23 04:46:04;;;;;;;4.93;3.00;;;21.30;99.90;;;;;;4994710;28;20429;-83
2023/07/23 04:48:34;;;;;;;3.37;2.43;;;21.40;99.90;;;;;;4995078;28;20834;-81
2023/07/23 04:51:01;;;;;;;2.30;2.00;;;22.10;99.90;;;;;;4995160;28;20503;-83
2023/07/23 04:53:27;;;;;;;2.30;2.10;;;22.90;99.90;;;;;;5000299;28;20433;-84
2023/07/23 04:55:54;;;;;;;3.80;3.20;;;23.70;99.90;;;;;;4993417;28;22006;-83
2023/07/23 04:58:20;;;;;;;3.80;2.77;;;24.20;98.50;;;;;;5001928;28;20214;-83
2023/07/23 05:00:46;;;;;;;3.60;2.53;;;;;;;;;;4998677;28;21098;-82
2023/07/23 05:03:12;;;;;;;4.10;2.77;;;26.40;93.20;;;;;;5016724;28;20506;-85
2023/07/23 05:05:42;;;;;;;3.50;3.20;;;29.30;84.90;;;;;;4993870;28;20438;-86
2023/07/23 05:08:08;;;;;;;3.30;2.43;;;;;;;;;;4995946;28;20292;-83
2023/07/23 05:10:34;;;;;;;4.33;3.30;;;30.20;76.70;;;;;;5002807;28;20446;-83
2023/07/23 05:13:00;;;;;;;4.30;2.70;;;;;;;;;;5002601;28;20440;-82
2023/07/23 05:15:25;;;;;;;3.23;2.27;;;30.10;68.20;;;;;;5001230;28;20344;-80
2023/07/23 05:17:51;;;;;;;4.03;2.60;;;;;;;;;;5004017;28;20492;-81
2023/07/23 05:20:17;;;;;;;3.50;3.13;;;30.10;69.80;;;;;;4996953;28;20573;-84
2023/07/23 05:22:43;;;;;;;3.60;3.10;;;;;;;;;;4997289;28;20440;-84
2023/07/23 05:25:09;;;;;;;4.83;3.30;;;30.40;65.90;;;;;;4985957;28;20684;-83
2023/07/23 05:27:35;;;;;;;4.63;3.00;;;31.50;63.70;;;;;;5005133;28;20527;-85
2023/07/23 05:30:01;;;;;;;4.73;2.90;;;31.70;62.30;;;;;;5008915;28;20194;-89
2023/07/23 05:32:26;;;;;;;4.67;2.87;;;31.60;59.90;;;;;;4994889;28;20982;-84
2023/07/23 05:34:53;;;;;;;4.67;2.57;;;30.90;58.70;;;;;;5001075;28;20446;-81
2023/07/23 05:37:19;;;;;;;7.43;3.07;;;29.60;58.20;;;;;;4993971;28;20221;-83
2023/07/23 05:39:45;;;;;;;4.60;2.97;;;28.00;58.80;;;;;;4991662;28;20445;-85
2023/07/23 05:42:11;;;;;;;3.80;3.40;;;27.80;61.60;;;;;;4987554;28;20443;-86
2023/07/23 05:44:36;;;;;;;3.97;2.73;;;28.60;61.30;;;;;;4985737;28;20566;-82
2023/07/23 05:47:02;;;;;;;5.33;3.40;;;30.50;58.70;;;;;;4995031;28;20215;-84
2023/07/23 05:49:28;;;;;;;3.63;2.57;;;31.60;54.30;;;;;;4994837;28;20272;-84
2023/07/23 05:51:54;;;;;;;8.10;3.10;;;;;;;;;;4997315;28;20198;-85
2023/07/23 05:54:20;;;;;;;6.53;3.37;;;33.30;53.00;;;;;;4992723;28;20444;-86
2023/07/23 05:56:45;;;;;;;3.50;3.00;;;;;;;;;;4992047;28;20516;-84
2023/07/23 05:59:11;;;;;;;2.60;2.40;;;36.20;47.40;;;;;;4990125;28;20239;-86
2023/07/23 06:01:37;;;;;;;3.10;2.80;;;;;;;;;;4994134;28;20454;-87
2023/07/23 06:04:03;;;;;;;5.57;3.00;;;38.70;42.50;;;;;;4999775;28;20939;-87
2023/07/23 06:06:29;;;;;;;4.43;2.53;;;;;;;;;;4993707;28;20446;-84
2023/07/23 06:08:56;;;;;;;3.37;3.07;;;40.80;36.90;;;;;;4990291;28;20214;-87
2023/07/23 06:11:22;;;;;;;3.53;2.67;;;36.50;37.10;;;;;;4992666;28;20524;-84
2023/07/23 06:13:48;;;;;;;3.90;2.63;;;35.40;40.30;;;;;;4999450;28;20521;-84
2023/07/23 06:16:14;;;;;;;4.20;3.30;;;33.20;41.60;;;;;;5006727;28;20210;-85
2023/07/23 06:18:39;;;;;;;4.53;3.13;;;31.90;44.20;;;;;;4996578;28;20555;-84
2023/07/23 06:21:05;;;;;;;5.00;3.07;;;31.20;47.00;;;;;;4997373;28;20197;-85
2023/07/23 06:23:34;;;;;;;3.87;3.00;;;32.40;47.40;;;;;;5001159;28;20196;-84
2023/07/23 06:25:59;;;;;;;3.50;2.90;;;31.90;47.50;;;;;;5017170;28;20192;-83
2023/07/23 06:28:25;;;;;;;5.00;2.87;;;33.20;45.80;;;;;;5015933;28;20464;-87
2023/07/23 06:30:54;;;;;;;6.43;2.57;;;34.20;45.30;;;;;;4997648;28;20190;-86
2023/07/23 06:33:21;;;;;;;3.50;3.10;;;32.00;46.40;;;;;;4991604;28;20684;-84
2023/07/23 06:35:47;;;;;;;3.20;2.83;;;;;;;;;;4993161;28;20444;-85
2023/07/23 06:38:13;;;;;;;3.83;2.60;;;30.20;47.10;;;;;;4999084;28;20572;-82
2023/07/23 06:40:46;;;;;;;3.50;2.77;;;30.70;48.90;;;;;;4995457;28;20564;-84
2023/07/23 06:43:16;;;;;;;7.47;3.10;;;30.10;49.10;;;;;;4992028;28;22504;-84
2023/07/23 06:45:43;;;;;;;4.23;3.03;;;30.70;50.60;;;;;;4996836;28;21543;-83
2023/07/23 06:48:09;;;;;;;3.00;2.70;;;32.40;48.90;;;;;;4997417;28;21333;-84
2023/07/23 06:50:34;;;;;;;4.23;3.40;;;33.10;46.80;;;;;;5000982;28;20446;-84
2023/07/23 06:53:00;;;;;;;3.03;2.70;;;32.70;47.90;;;;;;5016899;28;20277;-83
2023/07/23 06:55:26;;;;;;;6.80;3.53;;;33.20;46.40;;;;;;5005474;28;20379;-86
2023/07/23 06:57:52;;;;;;;4.20;2.90;;;;;;;;;;5007437;28;20223;-84
2023/07/23 07:00:18;;;;;;;8.23;3.47;;;31.60;47.10;;;;;;5021821;28;20652;-83
2023/07/23 07:02:44;;;;;;;4.03;2.70;;;32.30;48.20;;;;;;5008478;28;20454;-85
2023/07/23 07:05:10;;;;;;;5.23;3.83;;;33.10;47.00;;;;;;5005127;28;20185;-85
2023/07/23 07:07:37;;;;;;;3.50;2.77;;;34.50;45.30;;;;;;4999597;28;21638;-85
2023/07/23 07:10:06;;;;;;;4.27;2.70;;;36.30;43.70;;;;;;4997027;28;20483;-85
2023/07/23 07:12:32;;;;;;;3.60;2.90;;;36.90;43.10;;;;;;5004265;28;20461;-86
2023/07/23 07:14:57;;;;;;;2.50;2.20;;;36.90;41.40;;;;;;5002164;28;20450;-85
2023/07/23 07:17:23;;;;;;;7.40;2.83;;;38.00;41.00;;;;;;4994652;28;20217;-86
2023/07/23 07:19:48;;;;;;;4.03;3.63;;;37.00;39.00;;;;;;5007178;28;20196;-83
2023/07/23 07:22:15;;;;;;;4.60;2.87;;;36.80;41.00;;;;;;4993548;28;20342;-86
2023/07/23 07:24:41;;;;;;;3.70;3.10;;;38.20;40.00;;;;;;5003081;28;20177;-84
2023/07/23 07:27:09;;;;;;;3.73;2.67;;;35.60;38.50;;;;;;5001445;28;20436;-85
2023/07/23 07:29:38;;;;;;;3.00;2.63;;;33.10;43.30;;;;;;4997327;28;20200;-88
2023/07/23 07:32:04;;;;;;;3.90;2.90;;;32.80;43.20;;;;;;5003665;28;20499;-86
2023/07/23 07:34:30;;;;;;;6.23;2.20;;;32.90;44.30;;;;;;4995775;28;20445;-86
2023/07/23 07:36:55;;;;;;;4.53;2.93;;;31.20;43.60;;;;;;4987635;28;20467;-83
2023/07/23 07:39:21;;;;;;;3.37;2.33;;;31.40;46.80;;;;;;4980989;28;21022;-83
2023/07/23 07:41:46;;;;;;;3.27;2.50;;;30.80;46.90;;;;;;4995903;28;20180;-83
2023/07/23 07:44:13;;;;;;;2.67;2.47;;;29.50;47.00;;;;;;4994103;28;20185;-87
2023/07/23 07:46:38;;;;;;;4.37;2.90;;;28.20;50.10;;;;;;4999957;28;20233;-83
2023/07/23 07:49:05;;;;;;;3.83;2.10;;;27.20;51.70;;;;;;5001690;28;20461;-83
2023/07/23 07:51:30;;;;;;;4.17;2.47;;;26.20;53.80;;;;;;5012100;28;20184;-84
2023/07/23 07:53:56;;;;;;;2.70;1.63;;;25.80;56.00;;;;;;5018152;28;20438;-82
2023/07/23 07:56:22;;;;;;;11.60;2.93;;;26.00;57.00;;;;;;5010332;28;20276;-88
2023/07/23 07:58:48;;;;;;;14.67;3.00;;;26.20;57.40;;;;;;5000017;28;20584;-86
2023/07/23 08:01:14;;;;;;;2.43;2.00;;;;;;;;;;4989505;28;21021;-86
2023/07/23 08:03:40;;;;;;;2.87;1.67;;;26.20;56.80;;;;;;4997523;28;20218;-85
2023/07/23 08:06:09;;;;;;;5.33;2.30;;;25.80;57.50;;;;;;4998366;28;20513;-87
2023/07/23 08:08:37;;;;;;;2.90;2.13;;;25.50;57.80;;;;;;5001294;28;20204;-86
2023/07/23 08:11:08;;;;;;;2.80;2.20;;;25.70;58.40;;;;;;4993633;28;20458;-85
2023/07/23 08:13:38;;;;;;;2.20;1.87;;;26.10;59.60;;;;;;4993959;28;21063;-86
2023/07/23 08:16:05;;;;;;;1.60;1.50;;;25.80;58.80;;;;;;4998964;28;21095;-85
2023/07/23 08:18:31;;;;;;;2.50;2.30;;;25.70;59.80;;;;;;4992089;28;21076;-85
2023/07/23 08:20:59;;;;;;;2.83;1.97;;;25.60;59.00;;;;;;4990711;28;20439;-82
2023/07/23 08:23:25;;;;;;;4.43;2.20;;;25.50;59.70;;;;;;4998984;28;21320;-84
2023/07/23 08:25:56;;;;;;;2.60;2.27;;;25.00;61.60;;;;;;4992448;28;20439;-84
2023/07/23 08:28:29;;;;;;;2.10;1.57;;;24.50;62.10;;;;;;4993433;28;20465;-80
2023/07/23 08:30:56;;;;;;;2.50;2.20;;;24.10;64.70;;;;;;4998036;28;20480;-83
2023/07/23 08:33:28;;;;;;;2.80;1.60;;;24.30;66.60;;;;;;4999554;28;20444;-81
2023/07/23 08:35:54;;;;;;;2.77;2.20;;;24.80;65.00;;;;;;5008386;28;20468;-83
2023/07/23 08:38:20;;;;;;;2.37;1.67;;;25.10;64.50;;;;;;4994743;28;20557;-84
2023/07/23 08:40:46;;;;;;;2.60;1.70;;;25.20;63.40;;;;;;4985520;28;20449;-86
2023/07/23 08:43:36;;;;;;;5.30;1.80;;;25.60;62.90;;;;;;4986065;28;20433;-85
2023/07/23 08:46:22;;;;;;;2.00;1.83;;;26.10;63.40;;;;;;4995892;28;20183;-86
2023/07/23 08:49:03;;;;;;;2.97;1.87;;;26.50;62.00;;;;;;4998431;28;20476;-84
2023/07/23 08:51:43;;;;;;;3.90;1.73;;;26.00;62.30;;;;;;5016955;28;20460;-84
2023/07/23 08:54:09;;;;;;;2.77;2.30;;;25.80;62.80;;;;;;4992448;28;20513;-83
2023/07/23 08:56:36;;;;;;;5.40;2.47;;;25.20;64.10;;;;;;4987248;28;20446;-84
2023/07/23 08:59:03;;;;;;;2.00;1.80;;;26.00;63.30;;;;;;5000141;28;21002;-83
2023/07/23 09:01:33;;;;;;;1.63;1.43;;;25.70;62.70;;;;;;4990203;28;20532;-85
2023/07/23 09:03:59;;;;;;;3.50;1.63;;;25.50;63.30;;;;;;4996364;28;20465;-82
2023/07/23 09:06:30;;;;;;;3.47;1.87;;;25.60;63.90;;;;;;4988780;28;20491;-84
2023/07/23 09:09:10;;;;;;;2.37;1.50;;;26.20;64.40;;;;;;5000084;28;20881;-82
2023/07/23 09:11:36;;;;;;;7.40;2.03;;;25.70;63.20;;;;;;4996138;28;20503;-83
2023/07/23 09:14:13;;;;;;;2.97;1.77;;;26.00;61.90;;;;;;5006440;28;20437;-86
2023/07/23 09:16:41;;;;;;;3.77;1.87;;;26.00;62.60;;;;;;5021394;28;21017;-82
2023/07/23 09:19:11;;;;;;;2.50;2.10;;;26.40;62.60;;;;;;5021845;28;20488;-83
2023/07/23 09:21:38;;;;;;;1.87;1.67;;;27.20;63.20;;;;;;5006956;28;20442;-85
2023/07/23 09:24:06;;;;;;;5.13;2.07;;;25.40;61.50;;;;;;4996835;28;20477;-86
2023/07/23 09:26:32;;;;;;;2.30;1.90;;;24.70;62.90;;;;;;5006878;28;20437;-85
2023/07/23 09:28:59;;;;;;;2.50;2.20;;;25.10;64.60;;;;;;5003486;28;20531;-84
2023/07/23 09:31:31;;;;;;;2.93;1.70;;;25.00;64.10;;;;;;5006398;28;20437;-85
2023/07/23 09:34:01;;;;;;;1.83;1.73;;;25.30;65.10;;;;;;5015716;28;20441;-84
2023/07/23 09:36:28;;;;;;;1.80;1.60;;;26.60;65.50;;;;;;4998248;28;20464;-85
2023/07/23 09:38:58;;;;;;;1.90;1.53;;;26.60;62.40;;;;;;5003748;28;20478;-85
2023/07/23 09:41:38;;;;;;;4.43;2.00;;;27.10;61.00;;;;;;5000099;28;20428;-83
2023/07/23 09:44:12;;;;;;;3.40;2.20;;;26.70;59.40;;;;;;5014653;28;20446;-84
2023/07/23 09:46:43;;;;;;;2.00;1.77;;;27.60;60.60;;;;;;4997615;28;20439;-85
2023/07/23 09:49:09;;;;;;;2.37;1.83;;;28.10;57.60;;;;;;4998178;28;20465;-83
2023/07/23 09:51:37;;;;;;;3.23;2.33;;;29.10;57.70;;;;;;4987418;28;20430;-84
2023/07/23 09:54:04;;;;;;;2.57;2.10;;;29.10;55.10;;;;;;4996482;28;20262;-82
2023/07/23 09:56:32;;;;;;;2.27;2.07;;;29.30;55.20;;;;;;4987307;28;20452;-86
2023/07/23 09:58:59;;;;;;;6.10;2.30;;;29.90;53.40;;;;;;5005357;28;20477;-84
2023/07/23 10:01:25;;;;;;;1.77;1.60;;;29.70;53.10;;;;;;5000287;28;20774;-83
2023/07/23 10:03:50;;;;;;;2.00;1.80;;;28.60;53.90;;;;;;4994239;28;20499;-84
2023/07/23 10:06:20;;;;;;;2.40;2.10;;;27.30;55.70;;;;;;4995367;28;20941;-83
2023/07/23 10:08:48;;;;;;;3.70;2.20;;;27.70;57.50;;;;;;4986371;28;20221;-84
2023/07/23 10:11:15;;;;;;;3.30;2.00;;;29.00;57.10;;;;;;5012622;28;20448;-85
2023/07/23 10:13:42;;;;;;;2.87;2.07;;;30.50;54.20;;;;;;4999101;28;20452;-86
2023/07/23 10:16:39;;;;;;;3.80;2.20;;;29.20;53.20;;;;;;5001380;28;20425;-86
2023/07/23 10:19:07;;;;;;;2.10;1.73;;;29.20;54.80;;;;;;4994890;28;20465;-85
2023/07/23 10:21:34;;;;;;;2.90;2.30;;;29.20;54.30;;;;;;4995558;28;20513;-83
2023/07/23 10:24:00;;;;;;;4.10;2.50;;;29.60;54.40;;;;;;5011446;28;20460;-85
2023/07/23 10:26:27;;;;;;;2.93;2.13;;;30.30;53.50;;;;;;5000164;28;20496;-84
2023/07/23 10:29:18;;;;;;;2.90;2.33;;;29.80;51.30;;;;;;4997257;28;21280;-84
2023/07/23 10:31:44;;;;;;;2.60;2.13;;;28.40;56.00;;;;;;5002271;28;20462;-84
2023/07/23 10:34:22;;;;;;;3.07;2.27;;;28.00;55.40;;;;;;4995437;28;20537;-82
2023/07/23 10:37:14;;;;;;;3.60;2.47;;;28.10;56.60;;;;;;4985440;28;20657;-84
2023/07/23 10:39:42;;;;;;;2.17;1.97;;;29.70;56.50;;;;;;4993941;28;20446;-85
2023/07/23 10:42:07;;;;;;;3.47;2.27;;;29.80;53.80;;;;;;4984711;28;20868;-85
2023/07/23 10:44:33;;;;;;;2.40;2.10;;;28.60;55.00;;;;;;4995641;28;20439;-83
2023/07/23 10:47:02;;;;;;;3.10;2.10;;;28.50;56.00;;;;;;4992009;28;20191;-86
2023/07/23 10:49:30;;;;;;;2.90;2.57;;;28.20;55.80;;;;;;4993874;28;20217;-85
2023/07/23 10:52:14;;;;;;;7.83;2.93;;;28.50;57.00;;;;;;4999153;28;20472;-84
2023/07/23 10:54:41;;;;;;;3.50;2.83;;;28.50;55.80;;;;;;4997515;28;20442;-84
2023/07/23 10:57:06;;;;;;;4.10;2.60;;;28.30;56.80;;;;;;4992272;28;20462;-83
2023/07/23 10:59:32;;;;;;;2.97;2.67;;;28.60;57.00;;;;;;5005293;28;20456;-83
2023/07/23 11:01:58;;;;;;;5.27;2.83;;;27.40;56.40;;;;;;5004170;28;20322;-86
2023/07/23 11:04:25;;;;;;;3.23;2.90;;;26.80;58.50;;;;;;4988479;28;20931;-84
2023/07/23 11:07:04;;;;;;;3.93;2.97;;;27.30;58.90;;;;;;4987665;28;20840;-84
2023/07/23 11:09:33;;;;;;;4.07;2.93;;;27.30;58.60;;;;;;4994864;28;20487;-83
2023/07/23 11:11:59;;;;;;;3.50;2.80;;;27.20;60.10;;;;;;4989802;28;20902;-85
2023/07/23 11:14:29;;;;;;;4.13;3.00;;;27.20;57.80;;;;;;5019294;28;20473;-84
2023/07/23 11:16:59;;;;;;;4.10;3.30;;;26.60;59.30;;;;;;5002447;28;20447;-87
2023/07/23 11:19:26;;;;;;;3.27;2.97;;;26.70;60.20;;;;;;4999117;28;21281;-83
2023/07/23 11:21:56;;;;;;;3.40;2.70;;;27.30;60.80;;;;;;5004916;28;20447;-84
2023/07/23 11:24:26;;;;;;;3.70;2.77;;;26.80;57.90;;;;;;4994999;28;20446;-84
2023/07/23 11:26:52;;;;;;;5.13;2.70;;;27.30;59.70;;;;;;4987872;28;20672;-83
2023/07/23 11:29:18;;;;;;;3.07;2.80;;;27.30;58.50;;;;;;4993238;28;20462;-82
2023/07/23 11:31:45;;;;;;;4.40;2.90;;;27.00;58.50;;;;;;4993478;28;20442;-85
2023/07/23 11:34:12;;;;;;;4.07;3.00;;;26.70;58.70;;;;;;4996667;28;20440;-82
2023/07/23 11:36:39;;;;;;;5.50;3.40;;;27.20;59.10;;;;;;4995211;28;20441;-84
2023/07/23 11:39:05;;;;;;;4.80;3.10;;;27.10;58.40;;;;;;4991308;28;20480;-88
2023/07/23 11:41:33;;;;;;;2.77;2.50;;;27.30;59.00;;;;;;4994568;28;20449;-86
2023/07/23 11:44:03;;;;;;;4.83;2.70;;;27.50;58.60;;;;;;4984755;28;20449;-84
2023/07/23 11:46:40;;;;;;;5.00;3.37;;;27.60;58.40;;;;;;4985968;28;20540;-82
2023/07/23 11:49:08;;;;;;;5.80;2.97;;;27.10;59.30;;;;;;4991386;28;20483;-85
2023/07/23 11:51:34;;;;;;;3.80;2.70;;;27.40;58.90;;;;;;4990064;28;20440;-84
2023/07/23 11:54:02;;;;;;;5.70;2.80;;;27.90;58.40;;;;;;4994561;28;20488;-87
2023/07/23 11:56:30;;;;;;;3.20;2.50;;;28.70;57.90;;;;;;4988352;28;20187;-85
2023/07/23 11:59:02;;;;;;;3.27;2.67;;;29.20;56.30;;;;;;4988044;28;20497;-84
2023/07/23 12:01:27;;;;;;;3.40;2.77;;;29.30;55.90;;;;;;4998507;28;20515;-82
2023/07/23 12:03:53;;;;;;;3.27;2.77;;;28.50;55.90;;;;;;4988609;28;20503;-84
2023/07/23 12:06:20;;;;;;;5.93;2.70;;;28.30;55.50;;;;;;4990821;28;21011;-83
2023/07/23 12:08:46;;;;;;;6.67;3.27;;;27.70;55.40;;;;;;4990774;28;20327;-85
2023/07/23 12:11:14;;;;;;;3.87;3.10;;;27.10;56.40;;;;;;4988717;28;20544;-87
2023/07/23 12:13:50;;;;;;;3.90;2.90;;;27.00;56.70;;;;;;4987978;28;20444;-82
2023/07/23 12:16:49;;;;;;;3.30;2.83;;;27.60;56.20;;;;;;4992698;28;20451;-82
2023/07/23 12:19:20;;;;;;;6.20;3.30;;;27.20;56.40;;;;;;5015850;28;21726;-81
2023/07/23 12:21:47;;;;;;;7.63;3.53;;;27.00;56.60;;;;;;4997014;28;20460;-85
2023/07/23 12:24:21;;;;;;;2.73;2.53;;;27.00;56.60;;;;;;4994018;28;20444;-85
2023/07/23 12:26:50;;;;;;;3.10;2.60;;;26.40;57.20;;;;;;5003287;28;20530;-84
2023/07/23 12:29:17;;;;;;;6.43;3.30;;;26.00;58.40;;;;;;4992981;28;20794;-81
2023/07/23 12:31:45;;;;;;;2.97;2.40;;;26.30;58.40;;;;;;4995082;28;20431;-79
2023/07/23 12:34:12;;;;;;;4.80;3.20;;;26.60;58.90;;;;;;4996772;28;20447;-82
2023/07/23 12:36:39;;;;;;;5.77;3.60;;;27.00;58.50;;;;;;4988750;28;20531;-80
2023/07/23 12:39:06;;;;;;;3.40;3.10;;;26.60;57.80;;;;;;4995506;28;20548;-80
2023/07/23 12:41:32;;;;;;;5.37;3.03;;;26.00;58.00;;;;;;5003561;28;20444;-82
2023/07/23 12:43:58;;;;;;;3.67;2.60;;;25.90;58.80;;;;;;4988728;28;20438;-80
2023/07/23 12:46:23;;;;;;;3.27;2.97;;;25.80;59.80;;;;;;4986950;28;20453;-82
2023/07/23 12:48:49;;;;;;;3.90;2.90;;;26.00;59.50;;;;;;4993324;28;20199;-81
2023/07/23 12:51:15;;;;;;;5.13;3.10;;;26.20;59.50;;;;;;4994589;28;22067;-81